sensor_id;sensor_type;location;lat;lon;timestamp;temperature;humidity
41262;DHT22;29629;52.532;13.352;2023-06-22T00:00:52;22.20;99.90
41262;DHT22;29629;52.532;13.352;2023-06-22T00:03:20;22.20;99.90
41262;DHT22;29629;52.532;13.352;2023-06-22T00:05:47;22.20;99.90
41262;DHT22;29629;52.532;13.352;2023-06-22T00:08:15;22.10;99.90
41262;DHT22;29629;52.532;13.352;2023-06-22T00:10:42;22.10;99.90
41262;DHT22;29629;52.532;13.352;2023-06-22T00:13:11;22.00;99.90
41262;DHT22;29629;52.532;13.352;2023-06-22T00:15:40;22.00;99.90
41262;DHT22;29629;52.532;13.352;2023-06-22T00:18:07;21.90;99.90
41262;DHT22;29629;52.532;13.352;2023-06-22T00:20:37;21.90;99.90
41262;DHT22;29629;52.532;13.352;2023-06-22T00:23:05;22.00;99.90
41262;DHT22;29629;52.532;13.352;2023-06-22T00:25:34;21.90;99.90
41262;DHT22;29629;52.532;13.352;2023-06-22T00:28:01;21.90;99.90
41262;DHT22;29629;52.532;13.352;2023-06-22T00:30:30;21.80;99.90
41262;DHT22;29629;52.532;13.352;2023-06-22T00:32:58;21.80;99.90
41262;DHT22;29629;52.532;13.352;2023-06-22T00:35:26;21.80;99.90
41262;DHT22;29629;52.532;13.352;2023-06-22T00:37:54;21.80;99.90
41262;DHT22;29629;52.532;13.352;2023-06-22T00:40:26;21.70;99.90
41262;DHT22;29629;52.532;13.352;2023-06-22T00:42:54;21.70;99.90
41262;DHT22;29629;52.532;13.352;2023-06-22T00:45:21;21.70;99.90
41262;DHT22;29629;52.532;13.352;2023-06-22T00:47:51;21.60;99.90
41262;DHT22;29629;52.532;13.352;2023-06-22T00:50:20;21.60;99.90
41262;DHT22;29629;52.532;13.352;2023-06-22T00:52:51;21.60;99.90
41262;DHT22;29629;52.532;13.352;2023-06-22T00:55:18;21.60;99.90
41262;DHT22;29629;52.532;13.352;2023-06-22T00:57:46;21.60;99.90
41262;DHT22;29629;52.532;13.352;2023-06-22T01:00:14;21.60;99.90
41262;DHT22;29629;52.532;13.352;2023-06-22T01:02:46;21.50;99.90
41262;DHT22;29629;52.532;13.352;2023-06-22T01:05:19;21.50;99.90
41262;DHT22;29629;52.532;13.352;2023-06-22T01:07:56;21.50;99.90
41262;DHT22;29629;52.532;13.352;2023-06-22T01:10:33;21.50;99.90
41262;DHT22;29629;52.532;13.352;2023-06-22T01:13:07;21.50;99.90
41262;DHT22;29629;52.532;13.352;2023-06-22T01:15:41;21.40;99.90
41262;DHT22;29629;52.532;13.352;2023-06-22T01:18:13;21.40;99.90
41262;DHT22;29629;52.532;13.352;2023-06-22T01:20:43;21.40;99.90
41262;DHT22;29629;52.532;13.352;2023-06-22T01:23:16;21.40;99.90
41262;DHT22;29629;52.532;13.352;2023-06-22T01:25:50;21.30;99.90
41262;DHT22;29629;52.532;13.352;2023-06-22T01:28:35;21.20;99.90
41262;DHT22;29629;52.532;13.352;2023-06-22T01:31:02;21.30;99.90
41262;DHT22;29629;52.532;13.352;2023-06-22T01:33:33;21.20;99.90
41262;DHT22;29629;52.532;13.352;2023-06-22T01:36:01;21.20;99.90
41262;DHT22;29629;52.532;13.352;2023-06-22T01:38:29;21.20;99.90
41262;DHT22;29629;52.532;13.352;2023-06-22T01:40:57;21.20;99.90
41262;DHT22;29629;52.532;13.352;2023-06-22T01:43:26;21.10;99.90
41262;DHT22;29629;52.532;13.352;2023-06-22T01:45:56;21.10;99.90
41262;DHT22;29629;52.532;13.352;2023-06-22T01:48:23;21.10;99.90
41262;DHT22;29629;52.532;13.352;2023-06-22T01:50:51;21.00;99.90
41262;DHT22;29629;52.532;13.352;2023-06-22T01:53:20;21.00;99.90
41262;DHT22;29629;52.532;13.352;2023-06-22T01:55:48;21.00;99.90
41262;DHT22;29629;52.532;13.352;2023-06-22T01:58:15;21.00;99.90
41262;DHT22;29629;52.532;13.352;2023-06-22T02:00:46;21.00;99.90
41262;DHT22;29629;52.532;13.352;2023-06-22T02:03:19;21.00;99.90
41262;DHT22;29629;52.532;13.352;2023-06-22T02:05:51;21.00;99.90
41262;DHT22;29629;52.532;13.352;2023-06-22T02:08:21;21.00;99.90
41262;DHT22;29629;52.532;13.352;2023-06-22T02:10:49;21.00;99.90
41262;DHT22;29629;52.532;13.352;2023-06-22T02:13:17;20.90;99.90
41262;DHT22;29629;52.532;13.352;2023-06-22T02:15:46;21.00;99.90
41262;DHT22;29629;52.532;13.352;2023-06-22T02:18:14;20.90;99.90
41262;DHT22;29629;52.532;13.352;2023-06-22T02:20:42;21.00;99.90
41262;DHT22;29629;52.532;13.352;2023-06-22T02:23:09;21.00;99.90
41262;DHT22;29629;52.532;13.352;2023-06-22T02:25:36;21.00;99.90
41262;DHT22;29629;52.532;13.352;2023-06-22T02:28:03;20.90;99.90
41262;DHT22;29629;52.532;13.352;2023-06-22T02:30:31;20.90;99.90
41262;DHT22;29629;52.532;13.352;2023-06-22T02:32:58;21.00;99.90
41262;DHT22;29629;52.532;13.352;2023-06-22T02:35:26;21.00;99.90
41262;DHT22;29629;52.532;13.352;2023-06-22T02:37:58;21.00;99.90
41262;DHT22;29629;52.532;13.352;2023-06-22T02:40:25;21.00;99.90
41262;DHT22;29629;52.532;13.352;2023-06-22T02:42:52;21.00;99.90
41262;DHT22;29629;52.532;13.352;2023-06-22T02:45:19;21.10;99.90
41262;DHT22;29629;52.532;13.352;2023-06-22T02:47:49;21.10;99.90
41262;DHT22;29629;52.532;13.352;2023-06-22T02:50:16;21.10;99.90
41262;DHT22;29629;52.532;13.352;2023-06-22T02:52:43;21.10;99.90
41262;DHT22;29629;52.532;13.352;2023-06-22T02:55:14;21.10;99.90
41262;DHT22;29629;52.532;13.352;2023-06-22T02:57:41;21.10;99.90
41262;DHT22;29629;52.532;13.352;2023-06-22T03:00:11;21.00;99.90
41262;DHT22;29629;52.532;13.352;2023-06-22T03:02:43;21.10;99.90
41262;DHT22;29629;52.532;13.352;2023-06-22T03:05:10;21.10;99.90
41262;DHT22;29629;52.532;13.352;2023-06-22T03:07:39;21.10;99.90
41262;DHT22;29629;52.532;13.352;2023-06-22T03:10:08;21.10;99.90
41262;DHT22;29629;52.532;13.352;2023-06-22T03:12:36;21.00;99.90
41262;DHT22;29629;52.532;13.352;2023-06-22T03:15:05;21.10;99.90
41262;DHT22;29629;52.532;13.352;2023-06-22T03:17:33;21.10;99.90
41262;DHT22;29629;52.532;13.352;2023-06-22T03:20:00;21.00;99.90
41262;DHT22;29629;52.532;13.352;2023-06-22T03:22:32;21.10;99.90
41262;DHT22;29629;52.532;13.352;2023-06-22T03:24:58;21.10;99.90
41262;DHT22;29629;52.532;13.352;2023-06-22T03:27:26;21.10;99.90
41262;DHT22;29629;52.532;13.352;2023-06-22T03:29:54;21.10;99.90
41262;DHT22;29629;52.532;13.352;2023-06-22T03:32:21;21.10;99.90
41262;DHT22;29629;52.532;13.352;2023-06-22T03:34:48;21.10;99.90
41262;DHT22;29629;52.532;13.352;2023-06-22T03:37:15;21.10;99.90
41262;DHT22;29629;52.532;13.352;2023-06-22T03:39:42;21.10;99.90
41262;DHT22;29629;52.532;13.352;2023-06-22T03:42:09;21.20;99.90
41262;DHT22;29629;52.532;13.352;2023-06-22T03:44:36;21.20;99.90
41262;DHT22;29629;52.532;13.352;2023-06-22T03:47:04;21.10;99.90
41262;DHT22;29629;52.532;13.352;2023-06-22T03:49:32;21.10;99.90
41262;DHT22;29629;52.532;13.352;2023-06-22T03:52:00;21.10;99.90
41262;DHT22;29629;52.532;13.352;2023-06-22T03:54:27;21.10;99.90
41262;DHT22;29629;52.532;13.352;2023-06-22T03:56:54;21.10;99.90
41262;DHT22;29629;52.532;13.352;2023-06-22T03:59:21;21.10;99.90
41262;DHT22;29629;52.532;13.352;2023-06-22T04:01:48;21.10;99.90
41262;DHT22;29629;52.532;13.352;2023-06-22T04:04:17;21.10;99.90
41262;DHT22;29629;52.532;13.352;2023-06-22T04:06:44;21.10;99.90
41262;DHT22;29629;52.532;13.352;2023-06-22T04:09:11;21.20;99.90
41262;DHT22;29629;52.532;13.352;2023-06-22T04:11:38;21.20;99.90
41262;DHT22;29629;52.532;13.352;2023-06-22T04:14:05;21.20;99.90
41262;DHT22;29629;52.532;13.352;2023-06-22T04:16:32;21.20;99.90
41262;DHT22;29629;52.532;13.352;2023-06-22T04:18:58;21.30;99.90
41262;DHT22;29629;52.532;13.352;2023-06-22T04:21:28;21.30;99.90
41262;DHT22;29629;52.532;13.352;2023-06-22T04:23:55;21.30;99.90
41262;DHT22;29629;52.532;13.352;2023-06-22T04:26:22;21.40;99.90
41262;DHT22;29629;52.532;13.352;2023-06-22T04:28:49;21.40;99.90
41262;DHT22;29629;52.532;13.352;2023-06-22T04:31:21;21.50;99.90
41262;DHT22;29629;52.532;13.352;2023-06-22T04:33:48;21.50;99.90
41262;DHT22;29629;52.532;13.352;2023-06-22T04:36:17;21.50;99.90
41262;DHT22;29629;52.532;13.352;2023-06-22T04:38:45;21.60;99.90
41262;DHT22;29629;52.532;13.352;2023-06-22T04:41:12;21.60;99.90
41262;DHT22;29629;52.532;13.352;2023-06-22T04:43:49;21.70;99.90
41262;DHT22;29629;52.532;13.352;2023-06-22T04:46:19;21.80;99.90
41262;DHT22;29629;52.532;13.352;2023-06-22T04:48:46;21.80;99.90
41262;DHT22;29629;52.532;13.352;2023-06-22T04:51:13;21.80;99.90
41262;DHT22;29629;52.532;13.352;2023-06-22T04:53:40;21.90;99.90
41262;DHT22;29629;52.532;13.352;2023-06-22T04:56:08;22.00;99.90
41262;DHT22;29629;52.532;13.352;2023-06-22T04:58:35;22.10;99.90
41262;DHT22;29629;52.532;13.352;2023-06-22T05:01:02;22.20;99.90
41262;DHT22;29629;52.532;13.352;2023-06-22T05:03:29;22.30;99.90
41262;DHT22;29629;52.532;13.352;2023-06-22T05:05:56;22.40;99.90
41262;DHT22;29629;52.532;13.352;2023-06-22T05:08:26;22.50;99.90
41262;DHT22;29629;52.532;13.352;2023-06-22T05:10:54;22.50;99.90
41262;DHT22;29629;52.532;13.352;2023-06-22T05:13:22;22.60;99.90
41262;DHT22;29629;52.532;13.352;2023-06-22T05:15:51;22.60;99.90
41262;DHT22;29629;52.532;13.352;2023-06-22T05:18:26;22.50;99.90
41262;DHT22;29629;52.532;13.352;2023-06-22T05:20:53;22.50;99.90
41262;DHT22;29629;52.532;13.352;2023-06-22T05:23:20;22.40;99.90
41262;DHT22;29629;52.532;13.352;2023-06-22T05:25:47;22.40;99.90
41262;DHT22;29629;52.532;13.352;2023-06-22T05:28:16;22.50;99.90
41262;DHT22;29629;52.532;13.352;2023-06-22T05:30:49;22.60;99.90
41262;DHT22;29629;52.532;13.352;2023-06-22T05:33:17;22.60;99.90
41262;DHT22;29629;52.532;13.352;2023-06-22T05:35:44;22.70;99.90
41262;DHT22;29629;52.532;13.352;2023-06-22T05:38:11;22.70;99.90
41262;DHT22;29629;52.532;13.352;2023-06-22T05:40:38;22.70;99.90
41262;DHT22;29629;52.532;13.352;2023-06-22T05:43:04;22.60;99.90
41262;DHT22;29629;52.532;13.352;2023-06-22T05:45:31;22.60;99.90
41262;DHT22;29629;52.532;13.352;2023-06-22T05:48:00;22.60;99.90
41262;DHT22;29629;52.532;13.352;2023-06-22T05:50:27;22.70;99.90
41262;DHT22;29629;52.532;13.352;2023-06-22T05:52:54;22.70;99.90
41262;DHT22;29629;52.532;13.352;2023-06-22T05:55:20;22.80;99.90
41262;DHT22;29629;52.532;13.352;2023-06-22T05:57:47;22.80;99.90
41262;DHT22;29629;52.532;13.352;2023-06-22T06:00:15;22.90;99.90
41262;DHT22;29629;52.532;13.352;2023-06-22T06:02:42;23.00;99.90
41262;DHT22;29629;52.532;13.352;2023-06-22T06:05:11;23.00;99.90
41262;DHT22;29629;52.532;13.352;2023-06-22T06:07:39;22.90;99.90
41262;DHT22;29629;52.532;13.352;2023-06-22T06:10:07;22.90;99.90
41262;DHT22;29629;52.532;13.352;2023-06-22T06:12:35;23.00;99.90
41262;DHT22;29629;52.532;13.352;2023-06-22T06:15:02;23.20;99.90
41262;DHT22;29629;52.532;13.352;2023-06-22T06:17:29;23.40;99.90
41262;DHT22;29629;52.532;13.352;2023-06-22T06:19:56;23.50;99.90
41262;DHT22;29629;52.532;13.352;2023-06-22T06:22:24;23.60;99.90
41262;DHT22;29629;52.532;13.352;2023-06-22T06:24:51;23.70;99.90
41262;DHT22;29629;52.532;13.352;2023-06-22T06:27:18;23.80;99.90
41262;DHT22;29629;52.532;13.352;2023-06-22T06:29:45;23.90;99.90
41262;DHT22;29629;52.532;13.352;2023-06-22T06:32:14;23.90;99.90
41262;DHT22;29629;52.532;13.352;2023-06-22T06:34:41;24.00;99.90
41262;DHT22;29629;52.532;13.352;2023-06-22T06:37:08;24.00;99.90
41262;DHT22;29629;52.532;13.352;2023-06-22T06:39:36;24.00;99.90
41262;DHT22;29629;52.532;13.352;2023-06-22T06:42:05;24.10;99.90
41262;DHT22;29629;52.532;13.352;2023-06-22T06:44:32;24.00;99.90
41262;DHT22;29629;52.532;13.352;2023-06-22T06:46:59;24.10;99.90
41262;DHT22;29629;52.532;13.352;2023-06-22T06:49:26;24.00;99.90
41262;DHT22;29629;52.532;13.352;2023-06-22T06:51:52;24.10;99.90
41262;DHT22;29629;52.532;13.352;2023-06-22T06:54:21;24.30;99.90
41262;DHT22;29629;52.532;13.352;2023-06-22T06:56:49;24.30;99.90
41262;DHT22;29629;52.532;13.352;2023-06-22T06:59:16;24.30;99.90
41262;DHT22;29629;52.532;13.352;2023-06-22T07:01:43;24.10;99.90
41262;DHT22;29629;52.532;13.352;2023-06-22T07:04:10;24.30;99.90
41262;DHT22;29629;52.532;13.352;2023-06-22T07:06:37;24.30;99.90
41262;DHT22;29629;52.532;13.352;2023-06-22T07:09:04;24.50;99.90
41262;DHT22;29629;52.532;13.352;2023-06-22T07:11:31;24.80;99.90
41262;DHT22;29629;52.532;13.352;2023-06-22T07:13:59;25.10;99.90
41262;DHT22;29629;52.532;13.352;2023-06-22T07:16:27;25.40;99.90
41262;DHT22;29629;52.532;13.352;2023-06-22T07:18:55;25.60;99.90
41262;DHT22;29629;52.532;13.352;2023-06-22T07:21:22;25.70;99.90
41262;DHT22;29629;52.532;13.352;2023-06-22T07:23:49;25.70;99.90
41262;DHT22;29629;52.532;13.352;2023-06-22T07:26:21;25.60;99.90
41262;DHT22;29629;52.532;13.352;2023-06-22T07:28:48;25.70;99.90
41262;DHT22;29629;52.532;13.352;2023-06-22T07:31:17;25.90;99.90
41262;DHT22;29629;52.532;13.352;2023-06-22T07:33:44;26.00;99.90
41262;DHT22;29629;52.532;13.352;2023-06-22T07:36:11;26.20;99.90
41262;DHT22;29629;52.532;13.352;2023-06-22T07:38:38;26.20;99.90
41262;DHT22;29629;52.532;13.352;2023-06-22T07:41:05;26.50;99.90
41262;DHT22;29629;52.532;13.352;2023-06-22T07:43:32;26.70;99.90
41262;DHT22;29629;52.532;13.352;2023-06-22T07:45:59;26.70;99.90
41262;DHT22;29629;52.532;13.352;2023-06-22T07:48:28;26.80;99.90
41262;DHT22;29629;52.532;13.352;2023-06-22T07:50:55;26.90;99.90
41262;DHT22;29629;52.532;13.352;2023-06-22T07:53:22;26.80;99.90
41262;DHT22;29629;52.532;13.352;2023-06-22T07:55:49;26.80;99.90
41262;DHT22;29629;52.532;13.352;2023-06-22T07:58:16;26.90;99.90
41262;DHT22;29629;52.532;13.352;2023-06-22T08:00:46;26.80;99.90
41262;DHT22;29629;52.532;13.352;2023-06-22T08:03:15;26.70;99.90
41262;DHT22;29629;52.532;13.352;2023-06-22T08:05:44;26.50;99.90
41262;DHT22;29629;52.532;13.352;2023-06-22T08:08:11;26.40;99.90
41262;DHT22;29629;52.532;13.352;2023-06-22T08:10:40;26.30;99.90
41262;DHT22;29629;52.532;13.352;2023-06-22T08:13:08;26.50;99.90
41262;DHT22;29629;52.532;13.352;2023-06-22T08:15:34;26.80;99.90
41262;DHT22;29629;52.532;13.352;2023-06-22T08:18:01;27.00;99.90
41262;DHT22;29629;52.532;13.352;2023-06-22T08:20:28;26.80;99.90
41262;DHT22;29629;52.532;13.352;2023-06-22T08:22:58;26.80;99.90
41262;DHT22;29629;52.532;13.352;2023-06-22T08:25:31;26.80;99.90
41262;DHT22;29629;52.532;13.352;2023-06-22T08:27:58;26.80;99.90
41262;DHT22;29629;52.532;13.352;2023-06-22T08:30:25;26.80;99.90
41262;DHT22;29629;52.532;13.352;2023-06-22T08:32:52;26.50;99.90
41262;DHT22;29629;52.532;13.352;2023-06-22T08:35:19;26.50;99.90
41262;DHT22;29629;52.532;13.352;2023-06-22T08:37:46;26.60;99.90
41262;DHT22;29629;52.532;13.352;2023-06-22T08:40:19;26.70;99.90
41262;DHT22;29629;52.532;13.352;2023-06-22T08:42:47;26.80;99.90
41262;DHT22;29629;52.532;13.352;2023-06-22T08:45:14;26.80;99.90
41262;DHT22;29629;52.532;13.352;2023-06-22T08:47:41;26.80;99.90
41262;DHT22;29629;52.532;13.352;2023-06-22T08:50:09;26.70;99.90
41262;DHT22;29629;52.532;13.352;2023-06-22T08:52:37;26.60;99.90
41262;DHT22;29629;52.532;13.352;2023-06-22T08:55:05;26.50;99.90
41262;DHT22;29629;52.532;13.352;2023-06-22T08:57:34;26.40;99.90
41262;DHT22;29629;52.532;13.352;2023-06-22T09:00:03;26.30;99.90
41262;DHT22;29629;52.532;13.352;2023-06-22T09:02:32;26.40;99.90
41262;DHT22;29629;52.532;13.352;2023-06-22T09:04:59;26.50;99.90
41262;DHT22;29629;52.532;13.352;2023-06-22T09:07:26;26.50;99.90
41262;DHT22;29629;52.532;13.352;2023-06-22T09:09:53;26.60;99.90
41262;DHT22;29629;52.532;13.352;2023-06-22T09:12:20;26.80;99.90
41262;DHT22;29629;52.532;13.352;2023-06-22T09:14:52;27.20;99.90
41262;DHT22;29629;52.532;13.352;2023-06-22T09:17:19;27.60;99.90
41262;DHT22;29629;52.532;13.352;2023-06-22T09:19:46;27.80;99.90
41262;DHT22;29629;52.532;13.352;2023-06-22T09:22:14;28.20;99.90
41262;DHT22;29629;52.532;13.352;2023-06-22T09:24:43;28.20;99.90
41262;DHT22;29629;52.532;13.352;2023-06-22T09:27:10;28.50;99.90
41262;DHT22;29629;52.532;13.352;2023-06-22T09:29:37;28.50;99.90
41262;DHT22;29629;52.532;13.352;2023-06-22T09:32:06;28.40;99.90
41262;DHT22;29629;52.532;13.352;2023-06-22T09:34:33;28.60;99.90
41262;DHT22;29629;52.532;13.352;2023-06-22T09:37:00;28.00;99.90
41262;DHT22;29629;52.532;13.352;2023-06-22T09:39:27;28.10;99.90
41262;DHT22;29629;52.532;13.352;2023-06-22T09:41:54;28.30;99.90
41262;DHT22;29629;52.532;13.352;2023-06-22T09:44:21;28.40;99.90
41262;DHT22;29629;52.532;13.352;2023-06-22T09:46:48;29.30;99.90
41262;DHT22;29629;52.532;13.352;2023-06-22T09:49:16;29.40;99.90
41262;DHT22;29629;52.532;13.352;2023-06-22T09:51:43;29.70;99.90
41262;DHT22;29629;52.532;13.352;2023-06-22T09:54:10;29.60;99.90
41262;DHT22;29629;52.532;13.352;2023-06-22T09:56:37;30.10;99.90
41262;DHT22;29629;52.532;13.352;2023-06-22T09:59:04;30.00;99.90
41262;DHT22;29629;52.532;13.352;2023-06-22T10:01:32;29.90;99.90
41262;DHT22;29629;52.532;13.352;2023-06-22T10:03:59;30.30;99.90
41262;DHT22;29629;52.532;13.352;2023-06-22T10:06:27;30.30;99.90
41262;DHT22;29629;52.532;13.352;2023-06-22T10:08:54;31.10;99.90
41262;DHT22;29629;52.532;13.352;2023-06-22T10:11:21;31.70;99.90
41262;DHT22;29629;52.532;13.352;2023-06-22T10:13:52;31.30;99.90
41262;DHT22;29629;52.532;13.352;2023-06-22T10:16:19;31.60;99.90
41262;DHT22;29629;52.532;13.352;2023-06-22T10:18:46;31.90;99.90
41262;DHT22;29629;52.532;13.352;2023-06-22T10:21:13;31.50;99.90
41262;DHT22;29629;52.532;13.352;2023-06-22T10:23:42;31.30;99.90
41262;DHT22;29629;52.532;13.352;2023-06-22T10:26:09;31.80;99.90
41262;DHT22;29629;52.532;13.352;2023-06-22T10:28:36;33.30;99.90
41262;DHT22;29629;52.532;13.352;2023-06-22T10:31:03;34.00;99.90
41262;DHT22;29629;52.532;13.352;2023-06-22T10:33:30;34.30;99.90
41262;DHT22;29629;52.532;13.352;2023-06-22T10:35:57;34.10;99.90
41262;DHT22;29629;52.532;13.352;2023-06-22T10:38:24;33.80;99.90
41262;DHT22;29629;52.532;13.352;2023-06-22T10:40:52;34.10;99.90
41262;DHT22;29629;52.532;13.352;2023-06-22T10:43:19;34.50;99.90
41262;DHT22;29629;52.532;13.352;2023-06-22T10:45:46;35.10;99.60
41262;DHT22;29629;52.532;13.352;2023-06-22T10:48:12;35.50;98.60
41262;DHT22;29629;52.532;13.352;2023-06-22T10:50:39;35.80;98.70
41262;DHT22;29629;52.532;13.352;2023-06-22T10:53:06;34.80;97.10
41262;DHT22;29629;52.532;13.352;2023-06-22T10:55:33;34.00;98.20
41262;DHT22;29629;52.532;13.352;2023-06-22T10:58:01;33.40;99.00
41262;DHT22;29629;52.532;13.352;2023-06-22T11:00:28;33.10;98.20
41262;DHT22;29629;52.532;13.352;2023-06-22T11:02:55;32.80;99.20
41262;DHT22;29629;52.532;13.352;2023-06-22T11:05:23;32.90;99.70
41262;DHT22;29629;52.532;13.352;2023-06-22T11:07:50;33.70;99.50
41262;DHT22;29629;52.532;13.352;2023-06-22T11:10:18;34.20;98.60
41262;DHT22;29629;52.532;13.352;2023-06-22T11:12:45;34.30;97.70
41262;DHT22;29629;52.532;13.352;2023-06-22T11:15:13;33.80;96.40
41262;DHT22;29629;52.532;13.352;2023-06-22T11:17:40;33.10;96.90
41262;DHT22;29629;52.532;13.352;2023-06-22T11:20:07;32.40;97.10
41262;DHT22;29629;52.532;13.352;2023-06-22T11:22:37;31.70;97.70
41262;DHT22;29629;52.532;13.352;2023-06-22T11:25:05;31.30;99.10
41262;DHT22;29629;52.532;13.352;2023-06-22T11:27:33;31.50;99.50
41262;DHT22;29629;52.532;13.352;2023-06-22T11:30:00;31.50;99.50
41262;DHT22;29629;52.532;13.352;2023-06-22T11:32:28;31.70;98.10
41262;DHT22;29629;52.532;13.352;2023-06-22T11:34:55;31.90;98.80
41262;DHT22;29629;52.532;13.352;2023-06-22T11:37:22;32.40;99.90
41262;DHT22;29629;52.532;13.352;2023-06-22T11:39:49;33.40;97.10
41262;DHT22;29629;52.532;13.352;2023-06-22T11:42:16;33.60;97.10
41262;DHT22;29629;52.532;13.352;2023-06-22T11:44:43;33.70;97.10
41262;DHT22;29629;52.532;13.352;2023-06-22T11:47:10;33.30;96.60
41262;DHT22;29629;52.532;13.352;2023-06-22T11:49:38;33.50;96.20
41262;DHT22;29629;52.532;13.352;2023-06-22T11:52:06;33.50;95.80
41262;DHT22;29629;52.532;13.352;2023-06-22T11:54:33;33.30;95.60
41262;DHT22;29629;52.532;13.352;2023-06-22T11:57:00;33.40;96.70
41262;DHT22;29629;52.532;13.352;2023-06-22T11:59:27;33.50;95.80
41262;DHT22;29629;52.532;13.352;2023-06-22T12:01:54;33.40;96.50
41262;DHT22;29629;52.532;13.352;2023-06-22T12:04:21;34.20;95.50
41262;DHT22;29629;52.532;13.352;2023-06-22T12:06:49;34.50;96.20
41262;DHT22;29629;52.532;13.352;2023-06-22T12:09:16;35.20;94.60
41262;DHT22;29629;52.532;13.352;2023-06-22T12:11:43;35.40;94.50
41262;DHT22;29629;52.532;13.352;2023-06-22T12:14:10;35.10;94.20
41262;DHT22;29629;52.532;13.352;2023-06-22T12:16:37;34.40;94.60
41262;DHT22;29629;52.532;13.352;2023-06-22T12:19:04;34.00;95.10
41262;DHT22;29629;52.532;13.352;2023-06-22T12:21:31;33.60;95.10
41262;DHT22;29629;52.532;13.352;2023-06-22T12:23:59;34.10;95.30
41262;DHT22;29629;52.532;13.352;2023-06-22T12:26:26;33.20;94.40
41262;DHT22;29629;52.532;13.352;2023-06-22T12:28:53;32.80;94.90
41262;DHT22;29629;52.532;13.352;2023-06-22T12:31:21;33.00;95.10
41262;DHT22;29629;52.532;13.352;2023-06-22T12:33:48;33.70;94.50
41262;DHT22;29629;52.532;13.352;2023-06-22T12:36:15;34.20;94.20
41262;DHT22;29629;52.532;13.352;2023-06-22T12:38:42;34.50;93.40
41262;DHT22;29629;52.532;13.352;2023-06-22T12:41:10;34.30;92.90
41262;DHT22;29629;52.532;13.352;2023-06-22T12:43:37;34.40;93.50
41262;DHT22;29629;52.532;13.352;2023-06-22T12:46:04;34.70;93.90
41262;DHT22;29629;52.532;13.352;2023-06-22T12:48:31;34.10;93.60
41262;DHT22;29629;52.532;13.352;2023-06-22T12:50:58;33.50;93.90
41262;DHT22;29629;52.532;13.352;2023-06-22T12:53:25;33.20;94.10
41262;DHT22;29629;52.532;13.352;2023-06-22T12:55:52;33.00;94.10
41262;DHT22;29629;52.532;13.352;2023-06-22T12:58:21;32.70;94.00
41262;DHT22;29629;52.532;13.352;2023-06-22T13:00:48;31.90;94.90
41262;DHT22;29629;52.532;13.352;2023-06-22T13:03:15;31.80;95.60
41262;DHT22;29629;52.532;13.352;2023-06-22T13:05:42;32.30;95.10
41262;DHT22;29629;52.532;13.352;2023-06-22T13:08:09;32.60;94.70
41262;DHT22;29629;52.532;13.352;2023-06-22T13:10:36;32.70;94.60
41262;DHT22;29629;52.532;13.352;2023-06-22T13:13:03;33.00;95.10
41262;DHT22;29629;52.532;13.352;2023-06-22T13:15:31;33.20;95.20
41262;DHT22;29629;52.532;13.352;2023-06-22T13:17:58;32.50;94.70
41262;DHT22;29629;52.532;13.352;2023-06-22T13:20:25;32.50;94.80
41262;DHT22;29629;52.532;13.352;2023-06-22T13:22:53;32.30;94.90
41262;DHT22;29629;52.532;13.352;2023-06-22T13:25:21;32.40;95.20
41262;DHT22;29629;52.532;13.352;2023-06-22T13:27:51;31.80;94.80
41262;DHT22;29629;52.532;13.352;2023-06-22T13:30:18;31.40;95.30
41262;DHT22;29629;52.532;13.352;2023-06-22T13:32:47;31.20;95.90
41262;DHT22;29629;52.532;13.352;2023-06-22T13:35:14;31.30;96.10
41262;DHT22;29629;52.532;13.352;2023-06-22T13:37:41;31.60;96.00
41262;DHT22;29629;52.532;13.352;2023-06-22T13:40:08;31.10;96.20
41262;DHT22;29629;52.532;13.352;2023-06-22T13:42:38;31.20;96.80
41262;DHT22;29629;52.532;13.352;2023-06-22T13:45:06;31.10;96.20
41262;DHT22;29629;52.532;13.352;2023-06-22T13:47:33;31.30;96.80
41262;DHT22;29629;52.532;13.352;2023-06-22T13:50:01;31.10;96.30
41262;DHT22;29629;52.532;13.352;2023-06-22T13:52:28;30.60;96.60
41262;DHT22;29629;52.532;13.352;2023-06-22T13:54:55;30.40;97.40
41262;DHT22;29629;52.532;13.352;2023-06-22T13:57:22;30.60;97.00
41262;DHT22;29629;52.532;13.352;2023-06-22T13:59:49;30.50;97.10
41262;DHT22;29629;52.532;13.352;2023-06-22T14:02:16;30.50;97.40
41262;DHT22;29629;52.532;13.352;2023-06-22T14:04:43;30.50;97.70
41262;DHT22;29629;52.532;13.352;2023-06-22T14:07:11;30.50;97.30
41262;DHT22;29629;52.532;13.352;2023-06-22T14:09:38;30.40;97.40
41262;DHT22;29629;52.532;13.352;2023-06-22T14:12:06;30.30;97.60
41262;DHT22;29629;52.532;13.352;2023-06-22T14:14:33;30.10;97.60
41262;DHT22;29629;52.532;13.352;2023-06-22T14:17:00;30.10;98.00
41262;DHT22;29629;52.532;13.352;2023-06-22T14:19:27;30.10;97.70
41262;DHT22;29629;52.532;13.352;2023-06-22T14:21:54;29.90;98.30
41262;DHT22;29629;52.532;13.352;2023-06-22T14:24:22;29.90;98.10
41262;DHT22;29629;52.532;13.352;2023-06-22T14:26:49;29.60;98.60
41262;DHT22;29629;52.532;13.352;2023-06-22T14:29:16;29.40;98.60
41262;DHT22;29629;52.532;13.352;2023-06-22T14:31:45;29.40;98.70
41262;DHT22;29629;52.532;13.352;2023-06-22T14:34:13;29.40;98.70
41262;DHT22;29629;52.532;13.352;2023-06-22T14:36:40;29.30;98.70
41262;DHT22;29629;52.532;13.352;2023-06-22T14:39:08;29.20;99.10
41262;DHT22;29629;52.532;13.352;2023-06-22T14:41:36;29.30;99.20
41262;DHT22;29629;52.532;13.352;2023-06-22T14:44:03;29.40;99.40
41262;DHT22;29629;52.532;13.352;2023-06-22T14:46:30;29.40;98.90
41262;DHT22;29629;52.532;13.352;2023-06-22T14:48:57;29.30;99.20
41262;DHT22;29629;52.532;13.352;2023-06-22T14:51:24;29.40;99.40
41262;DHT22;29629;52.532;13.352;2023-06-22T14:53:52;29.20;99.20
41262;DHT22;29629;52.532;13.352;2023-06-22T14:56:19;29.10;99.10
41262;DHT22;29629;52.532;13.352;2023-06-22T14:58:47;29.10;99.60
41262;DHT22;29629;52.532;13.352;2023-06-22T15:01:15;29.20;99.70
41262;DHT22;29629;52.532;13.352;2023-06-22T15:03:42;29.20;99.90
41262;DHT22;29629;52.532;13.352;2023-06-22T15:06:09;29.00;99.90
41262;DHT22;29629;52.532;13.352;2023-06-22T15:08:37;29.00;99.90
41262;DHT22;29629;52.532;13.352;2023-06-22T15:11:04;29.00;99.90
41262;DHT22;29629;52.532;13.352;2023-06-22T15:13:31;28.90;99.90
41262;DHT22;29629;52.532;13.352;2023-06-22T15:16:01;28.90;99.90
41262;DHT22;29629;52.532;13.352;2023-06-22T15:18:29;28.80;99.90